Time;durP1;ratioP1;P1;durP2;ratioP2;P2;SDS_P1;SDS_P2;PMS_P1;PMS_P2;Temp;Humidity;BMP_temperature;BMP_pressure;BME280_temperature;BME280_humidity;BME280_pressure;Samples;Min_cycle;Max_cycle;Signal;HPM_P1;HPM_P2
2021/09/25 00:00:24;;;;;;;;;20.00;17.50;;;;;17.48;64.11;101380.81;6254751;22;45280;-87
2021/09/25 00:02:49;;;;;;;;;17.00;16.00;;;;;17.44;63.85;101376.38;6257877;22;45194;-87
2021/09/25 00:05:15;;;;;;;;;19.50;16.50;;;;;17.46;64.07;101385.25;6258438;22;45185;-88
2021/09/25 00:07:40;;;;;;;;;19.33;15.33;;;;;17.36;64.01;101368.41;6258300;22;44704;-87
2021/09/25 00:10:06;;;;;;;;;20.00;18.33;;;;;17.36;64.02;101363.09;6258753;22;45334;-87
2021/09/25 00:12:31;;;;;;;;;19.33;16.67;;;;;17.34;63.99;101364.00;6261706;22;45252;-89
2021/09/25 00:14:57;;;;;;;;;21.00;16.67;;;;;17.42;64.29;101375.50;6254748;22;45620;-87
2021/09/25 00:17:22;;;;;;;;;19.67;18.33;;;;;17.32;64.25;101360.44;6260713;22;45238;-87
2021/09/25 00:19:49;;;;;;;;;21.67;19.67;;;;;17.42;64.16;101374.59;6257439;22;45194;-87
2021/09/25 00:22:14;;;;;;;;;19.67;17.00;;;;;17.30;64.33;101362.22;6258171;22;44548;-87
2021/09/25 00:24:55;;;;;;;;;18.67;18.67;;;;;17.34;64.29;101369.31;6258283;22;46901;-87
2021/09/25 00:27:24;;;;;;;;;18.00;16.00;;;;;17.29;64.48;101357.78;6204114;22;45601;-87
2021/09/25 00:29:49;;;;;;;;;22.00;18.67;;;;;17.35;64.58;101377.28;6261026;22;45322;-87
2021/09/25 00:32:20;;;;;;;;;22.00;18.67;;;;;17.26;64.40;101358.66;6262613;22;45244;-87
2021/09/25 00:34:46;;;;;;;;;20.67;18.00;;;;;17.34;64.54;101377.28;6258435;22;46157;-87
2021/09/25 00:37:11;;;;;;;;;19.67;17.67;;;;;17.21;64.48;101361.34;6259917;22;46079;-87
2021/09/25 00:39:40;;;;;;;;;18.00;17.33;;;;;17.31;64.52;101375.50;6262536;22;45247;-87
2021/09/25 00:42:05;;;;;;;;;20.33;17.67;;;;;17.19;64.67;101364.88;6259207;22;44859;-88
2021/09/25 00:44:31;;;;;;;;;18.67;17.00;;;;;17.22;64.64;101365.75;6259352;22;45963;-86
2021/09/25 00:46:58;;;;;;;;;15.33;15.33;;;;;17.27;64.56;101364.88;6260952;22;45138;-88
2021/09/25 00:49:24;;;;;;;;;19.67;16.67;;;;;17.21;64.93;101363.09;6258502;22;45231;-88
2021/09/25 00:51:49;;;;;;;;;19.67;17.67;;;;;17.26;64.69;101379.06;6260393;22;45657;-87
2021/09/25 00:54:16;;;;;;;;;20.33;16.67;;;;;17.28;64.59;101371.97;6258647;22;45909;-87
2021/09/25 00:56:44;;;;;;;;;19.67;17.33;;;;;17.27;64.91;101379.06;6256107;22;45166;-89
2021/09/25 00:59:12;;;;;;;;;18.00;17.67;;;;;17.17;65.01;101356.03;6259941;22;45226;-89
2021/09/25 01:01:40;;;;;;;;;20.33;18.67;;;;;17.27;64.75;101378.16;6257722;22;45260;-89
2021/09/25 01:04:06;;;;;;;;;20.00;16.33;;;;;17.18;65.06;101366.66;6258254;22;45675;-88
2021/09/25 01:06:32;;;;;;;;;22.00;17.00;;;;;17.19;64.81;101379.06;6258804;22;45208;-89
2021/09/25 01:08:58;;;;;;;;;23.00;18.00;;;;;17.21;64.92;101379.94;6259673;22;45177;-86
2021/09/25 01:11:25;;;;;;;;;20.67;19.33;;;;;17.22;65.44;101384.34;6260934;22;45248;-86
2021/09/25 01:13:52;;;;;;;;;20.67;18.33;;;;;17.13;65.43;101361.31;6264288;22;47941;-87
2021/09/25 01:16:18;;;;;;;;;22.67;20.00;;;;;17.22;65.35;101362.22;6268333;22;45347;-87
2021/09/25 01:18:43;;;;;;;;;20.00;17.67;;;;;17.25;65.26;101375.50;6265335;22;45225;-86
2021/09/25 01:21:09;;;;;;;;;20.67;17.00;;;;;17.15;65.09;101356.03;6263426;22;45407;-86
2021/09/25 01:23:36;;;;;;;;;20.00;16.00;;;;;17.23;65.26;101372.84;6258880;22;46459;-89
2021/09/25 01:26:03;;;;;;;;;21.00;18.67;;;;;17.23;65.27;101364.00;6262864;22;45132;-93
2021/09/25 01:28:30;;;;;;;;;20.67;19.00;;;;;17.15;65.26;101348.06;6260520;22;45181;-90
2021/09/25 01:30:55;;;;;;;;;20.00;19.00;;;;;17.15;65.52;101344.50;6258798;22;45238;-93
2021/09/25 01:33:34;;;;;;;;;18.67;17.33;;;;;17.16;65.53;101344.50;6258862;22;48231;-92
2021/09/25 01:36:00;;;;;;;;;18.67;15.00;;;;;17.15;65.44;101348.06;6262305;22;45192;-92
2021/09/25 01:38:26;;;;;;;;;19.00;17.33;;;;;17.19;65.67;101354.25;6263171;22;45240;-94
2021/09/25 01:40:52;;;;;;;;;18.67;17.00;;;;;17.15;65.44;101341.84;6263873;22;45176;-87
2021/09/25 01:43:18;;;;;;;;;18.00;16.00;;;;;17.14;65.43;101343.63;6263155;22;46172;-87
2021/09/25 01:45:45;;;;;;;;;18.67;15.00;;;;;17.16;65.59;101355.13;6262221;22;45106;-87
2021/09/25 01:48:11;;;;;;;;;19.00;17.00;;;;;17.11;65.54;101341.81;6261342;22;45337;-87
2021/09/25 01:50:37;;;;;;;;;16.67;16.33;;;;;17.05;65.34;101330.31;6260558;22;45146;-87
2021/09/25 01:53:02;;;;;;;;;19.00;18.00;;;;;17.10;65.62;101347.13;6263600;22;45341;-87
2021/09/25 01:55:28;;;;;;;;;19.00;17.00;;;;;17.10;65.78;101344.47;6266445;22;45196;-86
2021/09/25 01:57:53;;;;;;;;;21.00;18.33;;;;;17.07;65.90;101333.88;6268904;22;44640;-87
2021/09/25 02:00:22;;;;;;;;;21.00;18.00;;;;;17.05;66.16;101330.31;6266055;22;44791;-86
2021/09/25 02:02:47;;;;;;;;;18.33;17.00;;;;;16.98;66.12;101325.00;6264580;22;45327;-86
2021/09/25 02:05:15;;;;;;;;;22.00;18.67;;;;;17.05;65.85;101340.94;6264151;22;44746;-88
2021/09/25 02:07:42;;;;;;;;;18.33;18.00;;;;;17.05;65.95;101331.19;6265613;22;45160;-86
2021/09/25 02:10:09;;;;;;;;;25.00;19.33;;;;;17.04;66.09;101324.13;6267964;22;45273;-87
2021/09/25 02:12:35;;;;;;;;;21.00;21.00;;;;;16.94;66.10;101304.63;6267564;22;45348;-87
2021/09/25 02:15:05;;;;;;;;;17.00;17.00;;;;;16.97;66.15;101312.59;6268997;22;44712;-88
2021/09/25 02:17:33;;;;;;;;;18.33;14.00;;;;;16.99;65.96;101321.44;6271337;22;45086;-87
2021/09/25 02:20:21;;;;;;;;;21.67;20.33;;;;;16.93;66.10;101310.84;6272180;22;44687;-88
2021/09/25 02:22:50;;;;;;;;;18.67;18.33;;;;;16.90;66.38;101310.81;6269527;22;46587;-86
2021/09/25 02:25:15;;;;;;;;;23.00;21.67;;;;;16.88;66.43;101308.16;6268647;22;44527;-87
2021/09/25 02:27:41;;;;;;;;;19.67;18.00;;;;;16.95;66.35;101318.78;6271082;22;44730;-87
2021/09/25 02:30:17;;;;;;;;;21.33;20.00;;;;;16.92;66.55;101321.47;6270833;22;45336;-87
2021/09/25 02:32:47;;;;;;;;;21.33;19.00;;;;;16.88;66.46;101317.91;6271506;22;46008;-86
2021/09/25 02:35:19;;;;;;;;;23.33;19.33;;;;;16.92;66.36;101324.97;6269870;22;45153;-86
2021/09/25 02:37:52;;;;;;;;;18.00;18.00;;;;;16.96;66.71;101325.88;6271942;22;44677;-87
2021/09/25 02:42:56;;;;;;;;;21.67;19.67;;;;;16.84;66.59;101310.81;6287036;22;45969;-90
2021/09/25 02:45:24;;;;;;;;;19.67;18.67;;;;;16.88;66.61;101307.28;6266544;22;45145;-87
2021/09/25 02:47:50;;;;;;;;;21.67;21.67;;;;;16.93;66.85;101313.50;6270597;22;44621;-88
2021/09/25 02:50:18;;;;;;;;;17.00;17.00;;;;;16.92;66.73;101309.03;6267669;22;45189;-87
2021/09/25 02:53:00;;;;;;;;;21.33;20.00;;;;;16.87;66.86;101300.22;6269939;22;46290;-89
2021/09/25 02:55:26;;;;;;;;;22.67;21.00;;;;;16.77;66.92;101283.41;6268118;22;45229;-86
2021/09/25 02:57:51;;;;;;;;;22.00;20.67;;;;;16.84;66.84;101293.13;6267266;22;45016;-92
2021/09/25 03:00:41;;;;;;;;;21.33;20.00;;;;;16.79;66.84;101285.16;6268057;22;44753;-90
2021/09/25 03:03:06;;;;;;;;;24.00;23.00;;;;;16.83;66.88;101301.09;6265012;22;46400;-91
2021/09/25 03:05:35;;;;;;;;;29.33;21.33;;;;;16.82;66.74;101296.66;6261023;22;45087;-87
2021/09/25 03:08:00;;;;;;;;;26.33;24.00;;;;;16.77;67.10;101288.72;6227564;22;44702;-93
2021/09/25 03:10:26;;;;;;;;;23.67;21.67;;;;;16.74;67.18;101280.72;6256393;22;45374;-92
2021/09/25 03:12:51;;;;;;;;;25.00;21.33;;;;;16.80;66.95;101294.00;6252545;22;46467;-90
2021/09/25 03:15:16;;;;;;;;;23.00;22.00;;;;;16.75;66.98;101293.13;6254025;22;45247;-93
2021/09/25 03:17:42;;;;;;;;;22.00;18.67;;;;;16.81;66.88;101306.41;6256510;22;45237;-88
2021/09/25 03:20:09;;;;;;;;;26.33;22.00;;;;;16.80;67.08;101309.94;6256230;22;44769;-84
2021/09/25 03:22:34;;;;;;;;;21.67;20.67;;;;;16.81;67.03;101308.19;6257661;22;46346;-89
2021/09/25 03:25:03;;;;;;;;;25.00;22.67;;;;;16.76;67.22;101297.53;6261270;22;45570;-88
2021/09/25 03:27:30;;;;;;;;;24.67;20.00;;;;;16.79;67.12;101298.41;6260662;22;45258;-91
2021/09/25 03:29:55;;;;;;;;;24.33;23.00;;;;;16.69;67.09;101280.72;6258596;22;45232;-88
2021/09/25 03:32:21;;;;;;;;;25.33;23.33;;;;;16.70;66.98;101289.56;6264865;22;46182;-86
2021/09/25 03:34:46;;;;;;;;;23.33;20.00;;;;;16.70;67.12;101290.47;6259805;22;45099;-87
2021/09/25 03:37:13;;;;;;;;;22.00;21.33;;;;;16.75;67.36;101303.75;6263461;22;45218;-87
2021/09/25 03:39:38;;;;;;;;;25.00;24.00;;;;;16.71;67.40;101289.56;6262415;22;45296;-88
2021/09/25 03:42:11;;;;;;;;;25.33;25.00;;;;;16.69;67.45;101290.47;6259395;22;46266;-88
2021/09/25 03:44:36;;;;;;;;;31.33;26.00;;;;;16.70;67.42;101293.13;6261737;22;44648;-87
2021/09/25 03:47:02;;;;;;;;;29.67;27.00;;;;;16.61;67.49;101272.75;6260413;22;45086;-89
2021/09/25 03:49:28;;;;;;;;;27.00;25.67;;;;;16.58;67.31;101277.19;6259813;22;45198;-88
2021/09/25 03:51:56;;;;;;;;;27.67;24.33;;;;;16.65;67.44;101284.25;6235952;22;46795;-87
2021/09/25 03:54:29;;;;;;;;;23.00;23.00;;;;;16.61;67.52;101282.47;6260124;22;45300;-92
2021/09/25 03:56:57;;;;;;;;;30.67;24.33;;;;;16.68;67.40;101289.59;6264482;22;45233;-95
2021/09/25 03:59:22;;;;;;;;;27.67;25.67;;;;;16.64;67.56;101275.44;6258416;22;44709;-94
2021/09/25 04:01:47;;;;;;;;;26.00;22.33;;;;;16.55;67.39;101267.44;6260847;22;45027;-87
2021/09/25 04:04:13;;;;;;;;;27.67;25.33;;;;;16.57;67.55;101278.06;6260111;22;44762;-93
2021/09/25 04:06:39;;;;;;;;;32.67;26.67;;;;;16.57;67.37;101276.28;6262472;22;45189;-93
2021/09/25 04:09:08;;;;;;;;;33.33;26.00;;;;;16.58;67.56;101285.16;6264104;22;45366;-89
2021/09/25 04:11:34;;;;;;;;;30.67;26.33;;;;;16.55;67.24;101278.94;6265750;22;46115;-89
2021/09/25 04:14:00;;;;;;;;;31.67;28.00;;;;;16.58;67.74;101287.81;6241421;22;44860;-91
2021/09/25 04:16:27;;;;;;;;;27.33;23.67;;;;;16.58;67.64;101290.47;6267826;22;44923;-93
2021/09/25 04:18:52;;;;;;;;;35.33;30.00;;;;;16.62;67.85;101290.47;6269451;22;44711;-90
2021/09/25 04:21:18;;;;;;;;;34.33;28.00;;;;;16.66;67.61;101291.34;6266029;22;46615;-90
2021/09/25 04:23:56;;;;;;;;;31.00;28.00;;;;;16.60;67.58;101267.47;6267437;22;45197;-89
2021/09/25 04:26:21;;;;;;;;;28.67;27.33;;;;;16.67;67.44;101283.38;6268326;22;44780;-87
2021/09/25 04:28:48;;;;;;;;;27.33;27.33;;;;;16.67;67.79;101277.19;6267549;22;44786;-88
2021/09/25 04:31:15;;;;;;;;;30.67;25.67;;;;;16.64;67.73;101272.78;6267216;22;48503;-87
2021/09/25 04:33:41;;;;;;;;;31.75;28.75;;;;;16.62;67.49;101276.31;6266618;22;45320;-89
2021/09/25 04:36:09;;;;;;;;;30.75;29.75;;;;;16.64;67.57;101277.19;6267390;22;44654;-86
2021/09/25 04:38:37;;;;;;;;;37.75;30.25;;;;;16.62;67.86;101273.66;6269942;22;44575;-87
2021/09/25 04:41:02;;;;;;;;;31.67;30.00;;;;;16.58;67.80;101269.22;6270316;22;46297;-87
2021/09/25 04:43:28;;;;;;;;;32.25;29.50;;;;;16.60;67.83;101268.34;6269416;22;44525;-86
2021/09/25 04:45:54;;;;;;;;;37.25;30.00;;;;;16.64;67.59;101283.41;6273799;22;45010;-86
2021/09/25 04:48:19;;;;;;;;;39.50;30.75;;;;;16.64;67.62;101277.19;6273680;22;44724;-87
2021/09/25 04:50:46;;;;;;;;;40.25;33.00;;;;;16.53;67.96;101261.25;6273640;22;44928;-86
2021/09/25 04:53:32;;;;;;;;;39.75;33.00;;;;;16.64;67.93;101279.84;6274374;22;45224;-88
2021/09/25 04:55:59;;;;;;;;;37.25;31.00;;;;;16.60;67.85;101275.41;6271546;22;44705;-84
2021/09/25 04:58:29;;;;;;;;;33.75;30.75;;;;;16.60;67.51;101270.13;6272561;22;44709;-87
2021/09/25 05:01:14;;;;;;;;;38.50;32.25;;;;;16.55;67.65;101263.03;6273513;22;46430;-87
2021/09/25 05:03:39;;;;;;;;;40.25;32.00;;;;;16.59;67.48;101265.66;6274007;22;44657;-86
2021/09/25 05:06:04;;;;;;;;;34.00;28.00;;;;;16.52;67.42;101260.34;6270823;22;44982;-87
2021/09/25 05:08:31;;;;;;;;;33.33;27.33;;;;;16.57;67.37;101275.41;6274054;22;44744;-86
2021/09/25 05:10:58;;;;;;;;;25.33;24.33;;;;;16.51;67.39;101266.56;6272314;22;46467;-87
2021/09/25 05:13:27;;;;;;;;;28.00;24.00;;;;;16.52;67.77;101272.75;6271659;22;45246;-88
2021/09/25 05:16:07;;;;;;;;;22.00;21.67;;;;;16.57;67.06;101283.38;6269806;22;45126;-88
2021/09/25 05:18:32;;;;;;;;;25.00;21.33;;;;;16.54;67.34;101290.44;6265078;22;44681;-87
2021/09/25 05:20:58;;;;;;;;;23.00;23.00;;;;;16.45;67.31;101263.91;6266406;22;46053;-87
2021/09/25 05:23:27;;;;;;;;;25.33;22.33;;;;;16.50;67.37;101288.66;6266997;22;45250;-88
2021/09/25 05:25:57;;;;;;;;;26.67;22.67;;;;;16.46;67.34;101278.03;6263367;22;45243;-87
2021/09/25 05:28:22;;;;;;;;;27.33;24.67;;;;;16.37;67.38;101263.00;6231780;22;45166;-92
2021/09/25 05:30:48;;;;;;;;;27.00;23.00;;;;;16.36;67.30;101259.47;6254251;22;45875;-94
2021/09/25 05:33:13;;;;;;;;;27.00;22.67;;;;;16.40;67.40;101265.66;6254416;22;45267;-91
2021/09/25 05:35:39;;;;;;;;;23.67;23.67;;;;;16.33;67.66;101256.78;6260942;22;45067;-87
2021/09/25 05:38:04;;;;;;;;;28.67;24.00;;;;;16.30;67.55;101264.75;6265003;22;44701;-88
2021/09/25 05:40:31;;;;;;;;;23.00;21.67;;;;;16.19;67.41;101252.34;6264008;22;47469;-87
2021/09/25 05:42:57;;;;;;;;;30.00;25.33;;;;;16.20;67.44;101258.56;6264609;22;45296;-87
2021/09/25 05:45:22;;;;;;;;;24.67;22.67;;;;;16.20;67.45;101255.91;6264495;22;45121;-88
2021/09/25 05:47:47;;;;;;;;;26.00;23.00;;;;;16.20;67.95;101266.50;6266150;22;45098;-87
2021/09/25 05:50:15;;;;;;;;;24.00;22.00;;;;;16.24;67.82;101273.59;6265539;22;47262;-87
2021/09/25 05:52:41;;;;;;;;;25.00;23.67;;;;;16.26;67.80;101270.94;6267287;22;44711;-87
2021/09/25 05:55:08;;;;;;;;;26.33;24.00;;;;;16.25;68.08;101277.13;6240842;22;44853;-87
2021/09/25 05:57:34;;;;;;;;;23.33;22.00;;;;;16.22;67.96;101267.41;6266656;22;45228;-86
2021/09/25 05:59:59;;;;;;;;;26.33;25.00;;;;;16.16;68.06;101264.72;6265861;22;46267;-86
2021/09/25 06:02:26;;;;;;;;;23.00;23.00;;;;;16.23;68.02;101271.81;6265473;22;44574;-86
2021/09/25 06:04:52;;;;;;;;;23.00;23.00;;;;;16.23;67.72;101281.53;6265520;22;45229;-86
2021/09/25 06:07:18;;;;;;;;;24.00;22.67;;;;;16.17;67.99;101272.69;6265792;22;45197;-86
2021/09/25 06:09:45;;;;;;;;;29.00;23.67;;;;;16.23;68.02;101277.13;6268690;22;45196;-89
2021/09/25 06:12:11;;;;;;;;;28.00;24.00;;;;;16.19;67.70;101275.34;6263109;22;45167;-86
2021/09/25 06:14:38;;;;;;;;;23.67;22.00;;;;;16.15;68.11;101274.44;6263475;22;44680;-87
2021/09/25 06:17:04;;;;;;;;;28.33;25.00;;;;;16.16;67.77;101276.22;6268714;22;45268;-87
2021/09/25 06:19:30;;;;;;;;;24.33;24.33;;;;;16.23;67.98;101286.84;6268491;22;45333;-87
2021/09/25 06:21:56;;;;;;;;;29.67;24.00;;;;;16.15;67.91;101277.09;6241509;22;44997;-88
2021/09/25 06:24:21;;;;;;;;;29.33;25.00;;;;;16.13;67.70;101270.00;6268017;22;45192;-88
2021/09/25 06:26:51;;;;;;;;;29.00;28.00;;;;;16.15;67.94;101276.22;6269151;22;44795;-88
2021/09/25 06:29:16;;;;;;;;;28.00;26.33;;;;;16.16;68.02;101285.94;6273168;22;45583;-88
2021/09/25 06:31:42;;;;;;;;;25.00;22.00;;;;;16.22;68.03;101285.97;6271047;22;44633;-88
2021/09/25 06:34:08;;;;;;;;;27.67;26.00;;;;;16.21;67.77;101278.88;6268205;22;45232;-87
2021/09/25 06:36:40;;;;;;;;;23.00;22.67;;;;;16.14;68.09;101266.50;6266313;22;45335;-86
2021/09/25 06:39:05;;;;;;;;;36.67;32.33;;;;;16.17;67.82;101269.13;6263078;22;47484;-87
2021/09/25 06:41:30;;;;;;;;;28.33;25.33;;;;;16.24;67.87;101280.66;6263781;22;45301;-87
2021/09/25 06:43:56;;;;;;;;;27.00;26.00;;;;;16.14;68.09;101258.53;6263781;22;45217;-87
2021/09/25 06:46:24;;;;;;;;;27.67;26.00;;;;;16.20;67.89;101277.13;6265252;22;45204;-88
2021/09/25 06:48:50;;;;;;;;;31.00;26.67;;;;;16.20;67.88;101272.69;6260186;22;47890;-88
2021/09/25 06:51:17;;;;;;;;;28.67;25.67;;;;;16.27;68.24;101276.25;6264503;22;45202;-87
2021/09/25 06:53:43;;;;;;;;;31.33;27.33;;;;;16.29;67.88;101263.88;6265629;22;45131;-88
2021/09/25 06:56:09;;;;;;;;;30.00;28.00;;;;;16.31;67.94;101270.06;6265347;22;45459;-88
2021/09/25 06:58:35;;;;;;;;;35.33;26.00;;;;;16.31;68.26;101270.06;6262675;22;45271;-91
2021/09/25 07:01:00;;;;;;;;;39.50;31.50;;;;;16.24;67.89;101246.19;6257580;22;45256;-90
2021/09/25 07:03:26;;;;;;;;;31.00;26.33;;;;;16.27;67.97;101255.00;6255051;22;45308;-87
2021/09/25 07:05:51;;;;;;;;;36.00;30.00;;;;;16.36;68.03;101264.78;6257526;22;45292;-91
2021/09/25 07:08:17;;;;;;;;;33.00;28.25;;;;;16.33;67.64;101251.47;6254861;22;47256;-89
2021/09/25 07:10:43;;;;;;;;;42.00;33.00;;;;;16.43;67.79;101263.03;6261045;22;45391;-93
2021/09/25 07:13:09;;;;;;;;;34.25;30.25;;;;;16.35;68.01;101244.41;6264138;22;45254;-92
2021/09/25 07:15:34;;;;;;;;;37.75;32.00;;;;;16.40;67.81;101244.44;6264308;22;44772;-90
2021/09/25 07:18:02;;;;;;;;;36.75;33.00;;;;;16.42;68.05;101251.50;6262462;22;46367;-87
2021/09/25 07:20:28;;;;;;;;;39.75;33.50;;;;;16.48;67.66;101255.94;6260570;22;45308;-88
2021/09/25 07:22:54;;;;;;;;;43.00;33.50;;;;;16.50;67.47;101248.84;6263925;22;45177;-87
2021/09/25 07:25:21;;;;;;;;;40.25;33.50;;;;;16.57;67.63;101260.38;6261027;22;45146;-89
2021/09/25 07:27:48;;;;;;;;;41.00;34.75;;;;;16.64;67.51;101261.28;6260804;22;44953;-81
2021/09/25 07:30:13;;;;;;;;;45.50;35.75;;;;;16.67;68.06;101256.84;6270665;22;44622;-81
2021/09/25 07:32:38;;;;;;;;;41.25;35.25;;;;;16.73;67.63;101260.41;6272276;22;44628;-81
2021/09/25 07:35:05;;;;;;;;;41.75;35.00;;;;;16.76;67.69;101255.97;6272347;22;44641;-82
2021/09/25 07:37:30;;;;;;;;;45.00;36.00;;;;;16.76;67.90;101240.03;6272110;22;45886;-81
2021/09/25 07:39:56;;;;;;;;;45.00;37.00;;;;;16.85;67.81;101246.22;6274071;22;44542;-80
2021/09/25 07:42:21;;;;;;;;;45.00;36.00;;;;;16.87;67.53;101247.09;6272685;22;44877;-79
2021/09/25 07:44:48;;;;;;;;;46.50;38.50;;;;;16.92;67.52;101245.31;6270644;22;45114;-80
2021/09/25 07:47:13;;;;;;;;;49.00;40.75;;;;;16.95;67.20;101255.94;6267714;22;45135;-80
2021/09/25 07:49:39;;;;;;;;;47.00;36.25;;;;;16.99;67.54;101249.75;6256273;22;45228;-81
2021/09/25 07:52:04;;;;;;;;;48.75;38.50;;;;;17.05;67.55;101247.97;6253554;22;45246;-82
2021/09/25 07:54:30;;;;;;;;;47.50;38.75;;;;;17.08;67.12;101237.34;6250206;22;45321;-83
2021/09/25 07:56:55;;;;;;;;;48.00;38.75;;;;;17.13;67.02;101243.56;6246679;22;46069;-81
2021/09/25 07:59:21;;;;;;;;;45.50;36.25;;;;;17.15;67.12;101247.13;6248297;22;45241;-82
2021/09/25 08:01:47;;;;;;;;;52.00;40.00;;;;;17.22;66.71;101240.00;6247730;22;45285;-79
2021/09/25 08:04:13;;;;;;;;;49.00;39.25;;;;;17.24;67.31;101236.44;6247273;22;45312;-85
2021/09/25 08:06:38;;;;;;;;;46.75;38.75;;;;;17.30;66.66;101238.19;6249346;22;45293;-79
2021/09/25 08:09:04;;;;;;;;;51.50;41.00;;;;;17.39;66.62;101241.72;6252712;22;45276;-83
2021/09/25 08:11:29;;;;;;;;;47.00;39.50;;;;;17.37;66.29;101228.44;6247760;22;45173;-86
2021/09/25 08:13:54;;;;;;;;;41.75;34.75;;;;;17.50;66.23;101242.59;6248501;22;45303;-84
2021/09/25 08:16:20;;;;;;;;;49.50;38.75;;;;;17.54;66.51;101233.72;6248710;22;46021;-84
2021/09/25 08:18:45;;;;;;;;;48.50;38.50;;;;;17.58;66.26;101229.25;6248225;22;45411;-87
2021/09/25 08:21:11;;;;;;;;;48.50;38.00;;;;;17.63;66.01;101230.13;6249726;22;45709;-78
2021/09/25 08:23:36;;;;;;;;;41.25;36.00;;;;;17.71;66.21;101224.78;6246812;22;45285;-77
2021/09/25 08:26:02;;;;;;;;;47.25;39.25;;;;;17.76;65.77;101230.09;6248179;22;46110;-85
2021/09/25 08:28:27;;;;;;;;;50.75;39.00;;;;;17.81;65.90;101231.81;6247074;22;45135;-81
2021/09/25 08:30:53;;;;;;;;;48.75;39.50;;;;;17.87;65.18;101230.94;6248859;22;45142;-80
2021/09/25 08:33:18;;;;;;;;;47.00;37.75;;;;;17.92;66.17;101233.53;6250867;22;45102;-79
2021/09/25 08:35:44;;;;;;;;;45.00;37.75;;;;;17.94;65.78;101237.06;6254348;22;45237;-77
2021/09/25 08:38:09;;;;;;;;;46.75;38.75;;;;;18.01;65.66;101232.59;6260161;22;45200;-82
2021/09/25 08:40:36;;;;;;;;;47.75;38.00;;;;;18.04;65.72;101232.59;6269658;22;45228;-89
2021/09/25 08:43:02;;;;;;;;;43.25;36.50;;;;;18.14;65.30;101234.31;6262027;22;45241;-82
2021/09/25 08:45:27;;;;;;;;;45.75;37.75;;;;;18.17;65.24;101221.00;6258799;22;45573;-82
2021/09/25 08:47:57;;;;;;;;;47.50;38.00;;;;;18.16;64.90;101210.34;6269251;22;44678;-84
2021/09/25 08:50:22;;;;;;;;;47.00;36.75;;;;;18.28;63.96;101222.72;6250815;22;45249;-84
2021/09/25 08:52:48;;;;;;;;;40.50;34.50;;;;;18.36;64.71;101218.22;6251794;22;45209;-84
2021/09/25 08:55:14;;;;;;;;;43.75;35.25;;;;;18.44;64.15;101231.50;6251652;22;45297;-83
2021/09/25 08:57:40;;;;;;;;;41.00;32.50;;;;;18.51;64.22;101227.88;6246344;22;45174;-84
2021/09/25 09:00:35;;;;;;;;;47.50;35.50;;;;;18.63;64.50;101229.53;6244800;22;45158;-84
2021/09/25 09:03:30;;;;;;;;;46.75;35.50;;;;;18.77;64.25;101230.31;6092372;23;45447;-89
2021/09/25 09:40:32;;;;;;;;;25.67;21.00;;;;;20.89;59.29;101201.78;6217430;22;45192;-84
2021/09/25 09:42:58;;;;;;;;;26.00;24.33;;;;;21.03;58.26;101210.44;6216520;22;45119;-85
2021/09/25 09:45:26;;;;;;;;;32.00;25.00;;;;;21.21;57.70;101213.69;6216518;22;45304;-85
2021/09/25 09:47:52;;;;;;;;;26.33;22.67;;;;;21.68;58.04;101217.19;6216154;22;46672;-84
2021/09/25 09:50:19;;;;;;;;;37.00;28.00;;;;;22.27;57.40;101207.84;6188589;22;46075;-85
2021/09/25 09:52:45;;;;;;;;;30.00;27.67;;;;;22.71;56.02;101203.25;6216682;22;45205;-84
2021/09/25 09:55:24;;;;;;;;;30.33;25.00;;;;;23.35;55.01;101199.69;6217111;22;45258;-84
2021/09/25 09:58:00;;;;;;;;;26.67;24.33;;;;;24.10;53.64;101198.41;6216391;22;45380;-84
2021/09/25 10:00:26;;;;;;;;;26.00;22.67;;;;;24.47;52.97;101199.88;6216906;22;45261;-84
2021/09/25 10:02:53;;;;;;;;;24.67;23.00;;;;;24.86;51.71;101205.75;6217100;22;45237;-85
2021/09/25 10:05:18;;;;;;;;;23.00;22.00;;;;;25.50;51.11;101206.16;6218348;22;45117;-84
2021/09/25 10:07:44;;;;;;;;;23.00;22.00;;;;;26.37;50.52;101211.75;6217823;22;46335;-84
2021/09/25 10:10:10;;;;;;;;;21.33;21.33;;;;;27.10;49.12;101215.88;6218060;22;45210;-85
2021/09/25 10:12:35;;;;;;;;;24.00;21.67;;;;;27.69;47.62;101206.06;6215889;22;45213;-83
2021/09/25 10:15:03;;;;;;;;;23.00;19.67;;;;;28.18;46.49;101202.78;6218255;22;45164;-84
2021/09/25 10:17:28;;;;;;;;;22.33;20.00;;;;;28.88;46.02;101201.09;6218291;22;45490;-84
2021/09/25 10:19:54;;;;;;;;;20.00;19.00;;;;;29.53;44.84;101212.09;6218246;22;45340;-85
2021/09/25 10:22:24;;;;;;;;;19.00;18.00;;;;;30.29;43.67;101214.22;6235711;22;45249;-85
2021/09/25 10:24:58;;;;;;;;;23.00;20.00;;;;;31.06;42.49;101218.69;6243153;22;44885;-84
2021/09/25 10:27:30;;;;;;;;;25.00;22.33;;;;;31.46;40.73;101211.72;6242273;22;45767;-85
2021/09/25 10:29:56;;;;;;;;;21.33;20.00;;;;;31.84;40.47;101223.81;6242281;22;44784;-86
2021/09/25 10:32:25;;;;;;;;;21.33;21.33;;;;;32.44;40.04;101226.25;6242555;22;44734;-85
2021/09/25 10:34:55;;;;;;;;;21.00;19.33;;;;;32.87;39.08;101205.19;6240128;22;44619;-83
2021/09/25 10:37:21;;;;;;;;;19.67;19.00;;;;;33.31;38.73;101223.94;6228897;22;47095;-84
2021/09/25 10:39:58;;;;;;;;;23.67;23.67;;;;;33.31;37.14;101223.94;6218443;22;45292;-84
2021/09/25 10:42:42;;;;;;;;;23.00;19.67;;;;;33.14;36.96;101215.13;6194129;22;45238;-84
2021/09/25 10:45:34;;;;;;;;;22.00;19.00;;;;;33.07;37.83;101216.53;6219210;22;45339;-83
2021/09/25 10:48:16;;;;;;;;;23.00;19.00;;;;;33.26;37.27;101207.94;6194906;22;48389;-84
2021/09/25 10:51:06;;;;;;;;;21.67;18.00;;;;;33.49;37.08;101207.22;6211295;22;45852;-84
2021/09/25 10:53:37;;;;;;;;;19.00;18.33;;;;;33.69;36.53;101197.59;6212267;22;45285;-84
2021/09/25 10:56:16;;;;;;;;;19.00;18.00;;;;;33.79;35.11;101189.63;6212321;22;44729;-83
2021/09/25 10:58:42;;;;;;;;;22.33;19.33;;;;;33.94;35.01;101182.16;6228134;22;45280;-83
2021/09/25 11:01:18;;;;;;;;;22.33;21.00;;;;;34.06;35.12;101180.34;6225319;22;45230;-85
2021/09/25 11:03:46;;;;;;;;;19.00;19.00;;;;;34.04;33.84;101176.84;6225861;22;45400;-84
2021/09/25 11:06:37;;;;;;;;;23.33;20.00;;;;;34.09;33.73;101176.50;6220761;22;45300;-84
2021/09/25 11:09:09;;;;;;;;;19.67;19.33;;;;;34.08;34.02;101172.91;6189027;22;46448;-84
2021/09/25 11:11:48;;;;;;;;;24.00;18.67;;;;;34.24;34.02;101177.19;6216790;22;45367;-85
2021/09/25 11:14:15;;;;;;;;;18.67;18.33;;;;;34.37;34.21;101168.09;6216817;22;45219;-84
2021/09/25 11:16:52;;;;;;;;;18.00;17.00;;;;;34.43;33.27;101160.31;6218484;22;45145;-85
2021/09/25 11:19:26;;;;;;;;;15.33;15.33;;;;;34.60;33.66;101166.28;6220541;22;45185;-84
2021/09/25 11:22:06;;;;;;;;;17.00;17.00;;;;;34.58;33.07;101151.00;6222255;22;45110;-84
2021/09/25 11:24:36;;;;;;;;;25.33;23.33;;;;;34.46;32.18;101150.97;6220497;22;45292;-84
2021/09/25 11:27:05;;;;;;;;;23.00;20.33;;;;;34.44;32.37;101144.78;6215587;22;45198;-85
2021/09/25 11:29:31;;;;;;;;;17.33;17.33;;;;;34.49;32.67;101138.97;6214203;22;47273;-84
2021/09/25 11:32:08;;;;;;;;;18.33;18.33;;;;;34.66;32.19;101146.69;6215371;22;45317;-89
2021/09/25 11:34:35;;;;;;;;;22.00;19.00;;;;;34.73;32.08;101141.59;6215269;22;45272;-85
2021/09/25 11:37:05;;;;;;;;;17.67;16.00;;;;;34.73;31.99;101138.00;6215408;22;45206;-85
2021/09/25 11:39:41;;;;;;;;;20.67;19.33;;;;;34.61;31.96;101134.38;6214252;22;45443;-83
2021/09/25 11:42:17;;;;;;;;;21.33;19.00;;;;;34.59;31.47;101134.50;6216788;22;45336;-84
2021/09/25 11:45:06;;;;;;;;;17.33;17.33;;;;;34.53;32.04;101138.59;6215672;22;45307;-84
2021/09/25 11:47:38;;;;;;;;;13.33;13.33;;;;;34.46;31.27;101137.34;6215944;22;45329;-84
2021/09/25 11:50:16;;;;;;;;;14.33;13.00;;;;;34.39;31.64;101133.38;6214614;22;45355;-84